Time;durP1;ratioP1;P1;durP2;ratioP2;P2;SDS_P1;SDS_P2;PMS_P1;PMS_P2;Temp;Humidity;BMP_temperature;BMP_pressure;BME280_temperature;BME280_humidity;BME280_pressure;Samples;Min_cycle;Max_cycle;Signal;HPM_P1;HPM_P2
2021/04/12 00:00:24;;;;;;;7.87;4.30;;;13.20;82.20;;;;;;4180458;34;20149;-68
2021/04/12 00:03:22;;;;;;;6.40;3.90;;;13.20;82.40;;;;;;4179069;34;20148;-68
2021/04/12 00:06:22;;;;;;;7.33;3.80;;;13.20;82.20;;;;;;4246591;33;20214;-68
2021/04/12 00:09:31;;;;;;;9.77;4.20;;;13.20;81.90;;;;;;4192825;34;20152;-67
2021/04/12 00:12:14;;;;;;;7.23;4.10;;;13.20;81.80;;;;;;4194215;34;20154;-68
2021/04/12 00:15:24;;;;;;;8.30;3.90;;;13.20;81.50;;;;;;4193088;34;20162;-68
2021/04/12 00:18:24;;;;;;;6.20;4.20;;;13.10;81.40;;;;;;4194309;34;20407;-68
2021/04/12 00:21:20;;;;;;;5.07;3.53;;;13.20;81.20;;;;;;4192752;34;20506;-68
2021/04/12 00:24:03;;;;;;;6.70;3.90;;;13.20;81.50;;;;;;4193419;34;20500;-67
2021/04/12 00:27:00;;;;;;;7.93;4.10;;;13.20;81.20;;;;;;4196837;34;20560;-68
2021/04/12 00:33:09;;;;;;;7.20;3.70;;;13.10;81.10;;;;;;4235947;34;20208;-68
2021/04/12 00:35:55;;;;;;;7.37;3.80;;;13.10;80.90;;;;;;4235607;33;20204;-69
2021/04/12 00:38:49;;;;;;;7.57;3.90;;;13.10;80.80;;;;;;4234805;34;20479;-68
2021/04/12 00:41:57;;;;;;;5.77;3.57;;;13.10;81.20;;;;;;4235582;34;20203;-67
2021/04/12 00:44:49;;;;;;;8.57;3.70;;;13.10;80.30;;;;;;4234120;34;20173;-67
2021/04/12 00:48:05;;;;;;;6.17;3.67;;;13.10;80.30;;;;;;4234988;34;20148;-68
2021/04/12 00:51:20;;;;;;;6.43;3.70;;;13.20;80.10;;;;;;4235432;34;20226;-68
2021/04/12 00:54:12;;;;;;;8.27;3.53;;;13.20;79.50;;;;;;4233522;33;20204;-67
2021/04/12 00:57:07;;;;;;;5.83;3.77;;;13.10;79.60;;;;;;4234152;34;20194;-68
2021/04/12 01:00:14;;;;;;;5.30;3.30;;;13.20;79.30;;;;;;4185304;33;20210;-67
2021/04/12 01:03:17;;;;;;;7.03;3.47;;;13.20;79.20;;;;;;4262627;33;20150;-68
2021/04/12 01:06:11;;;;;;;5.10;3.37;;;13.20;79.30;;;;;;4260983;33;20184;-68
2021/04/12 01:09:41;;;;;;;5.97;3.50;;;13.20;79.30;;;;;;4233955;34;20241;-68
2021/04/12 01:13:01;;;;;;;6.40;3.40;;;13.20;78.70;;;;;;4193104;34;20160;-67
2021/04/12 01:16:13;;;;;;;7.87;3.40;;;13.30;78.40;;;;;;4207337;34;20174;-67
2021/04/12 01:19:13;;;;;;;5.30;3.37;;;13.30;78.00;;;;;;4207025;34;20140;-68
2021/04/12 01:21:55;;;;;;;5.77;3.60;;;13.20;77.80;;;;;;4207092;34;20148;-68
2021/04/12 01:24:45;;;;;;;5.90;3.33;;;13.20;77.50;;;;;;4232449;33;20175;-68
2021/04/12 01:27:45;;;;;;;6.53;3.53;;;13.30;77.50;;;;;;4249112;33;20173;-69
2021/04/12 01:30:52;;;;;;;9.20;3.37;;;13.20;77.10;;;;;;4248916;33;20505;-68
2021/04/12 01:34:14;;;;;;;5.00;3.37;;;13.20;77.40;;;;;;4248562;33;20564;-68
2021/04/12 01:37:08;;;;;;;7.97;3.13;;;13.20;77.00;;;;;;4248580;33;20451;-69
2021/04/12 01:40:03;;;;;;;5.93;3.20;;;13.20;76.80;;;;;;4247172;33;20430;-69
2021/04/12 01:43:20;;;;;;;7.23;3.37;;;13.20;76.50;;;;;;4247269;33;20157;-68
2021/04/12 01:46:02;;;;;;;5.83;3.20;;;13.20;76.20;;;;;;4232767;34;20155;-68
2021/04/12 01:48:56;;;;;;;6.13;3.30;;;13.20;76.30;;;;;;4287051;33;20213;-67
2021/04/12 01:52:10;;;;;;;5.73;3.43;;;13.20;75.90;;;;;;4292201;33;20189;-67
2021/04/12 01:55:01;;;;;;;5.57;3.27;;;13.20;76.10;;;;;;4293013;33;20248;-67
2021/04/12 01:57:52;;;;;;;5.57;3.37;;;13.20;76.20;;;;;;4292937;33;20180;-68
2021/04/12 02:01:03;;;;;;;8.73;3.53;;;13.20;75.80;;;;;;4293072;33;20168;-68
2021/04/12 02:04:09;;;;;;;5.83;3.07;;;13.20;75.70;;;;;;4291579;33;20163;-68
2021/04/12 02:07:51;;;;;;;5.10;2.83;;;13.10;75.90;;;;;;4296820;33;20161;-69
2021/04/12 02:10:59;;;;;;;7.77;3.30;;;13.10;76.00;;;;;;4262674;33;20189;-67
2021/04/12 02:14:05;;;;;;;6.70;3.40;;;13.10;76.10;;;;;;4262365;33;20292;-68
2021/04/12 02:16:42;;;;;;;7.20;3.30;;;13.00;76.30;;;;;;4262163;33;20172;-67
2021/04/12 02:19:32;;;;;;;5.00;3.20;;;12.90;76.40;;;;;;4262430;33;20154;-68
2021/04/12 02:22:35;;;;;;;6.27;3.13;;;12.90;76.70;;;;;;4261032;33;20150;-68
2021/04/12 02:25:50;;;;;;;6.60;3.37;;;12.90;76.90;;;;;;4261968;33;20590;-67
2021/04/12 02:29:06;;;;;;;4.97;3.20;;;12.80;76.90;;;;;;4260937;33;20220;-68
2021/04/12 02:32:02;;;;;;;6.13;3.23;;;12.70;77.10;;;;;;4259096;33;20317;-69
2021/04/12 02:35:21;;;;;;;4.43;3.23;;;12.70;77.50;;;;;;4260205;33;20198;-69
2021/04/12 02:38:34;;;;;;;8.73;3.60;;;12.70;77.60;;;;;;4245761;33;20159;-69
2021/04/12 02:41:56;;;;;;;6.87;3.87;;;12.60;77.90;;;;;;4246560;33;20151;-68
2021/04/12 02:44:49;;;;;;;7.47;4.50;;;12.50;78.20;;;;;;4250845;33;20450;-69
2021/04/12 02:47:48;;;;;;;10.20;5.33;;;12.50;78.50;;;;;;4289125;33;20453;-69
2021/04/12 02:50:31;;;;;;;10.57;5.60;;;12.50;78.50;;;;;;4288886;33;20150;-68
2021/04/12 02:53:27;;;;;;;10.90;4.90;;;12.40;78.50;;;;;;4290218;33;20149;-69
2021/04/12 02:56:35;;;;;;;11.07;4.87;;;12.50;79.00;;;;;;4288729;33;20187;-68
2021/04/12 02:59:22;;;;;;;10.60;5.20;;;12.40;79.20;;;;;;4289101;33;20236;-67
2021/04/12 03:02:28;;;;;;;9.07;5.03;;;12.40;79.60;;;;;;4290084;33;20421;-68
2021/04/12 03:05:35;;;;;;;9.70;4.90;;;12.30;79.60;;;;;;4289753;33;20532;-67
2021/04/12 03:08:23;;;;;;;8.53;4.53;;;12.20;80.00;;;;;;4288911;33;20315;-67
2021/04/12 03:11:00;;;;;;;8.47;4.47;;;12.20;80.70;;;;;;4290550;33;20165;-69
2021/04/12 03:14:08;;;;;;;6.40;4.00;;;12.20;80.80;;;;;;4293303;33;20200;-69
2021/04/12 03:16:56;;;;;;;6.83;3.83;;;12.10;81.10;;;;;;4308076;33;20157;-68
2021/04/12 03:19:49;;;;;;;8.20;3.90;;;12.00;81.40;;;;;;4309619;33;20250;-69
2021/04/12 03:22:40;;;;;;;7.33;3.90;;;12.00;82.00;;;;;;4308134;33;20510;-68
2021/04/12 03:29:23;;;;;;;5.73;3.57;;;11.90;82.50;;;;;;4279173;33;20150;-68
2021/04/12 03:32:31;;;;;;;6.80;3.80;;;11.90;82.80;;;;;;4250419;33;20150;-68
2021/04/12 03:35:16;;;;;;;7.27;3.70;;;11.80;83.30;;;;;;4248404;33;20146;-67
2021/04/12 03:38:08;;;;;;;7.33;3.80;;;11.90;83.40;;;;;;4250577;33;20209;-68
2021/04/12 03:40:55;;;;;;;8.17;3.70;;;11.90;83.50;;;;;;4249031;33;20195;-69
2021/04/12 03:43:59;;;;;;;5.67;3.60;;;11.80;83.60;;;;;;4250028;33;20566;-68
2021/04/12 03:47:25;;;;;;;5.77;3.70;;;11.90;83.70;;;;;;4247876;33;20179;-68
2021/04/12 03:50:44;;;;;;;6.40;3.77;;;11.90;83.80;;;;;;4249425;33;20211;-68
2021/04/12 03:54:02;;;;;;;6.93;3.37;;;11.90;84.00;;;;;;4249181;33;20154;-67
2021/04/12 03:56:48;;;;;;;4.57;3.40;;;11.90;83.90;;;;;;4248419;33;20170;-67
2021/04/12 03:59:26;;;;;;;5.37;3.30;;;11.90;84.10;;;;;;4247228;33;20201;-67
2021/04/12 04:02:37;;;;;;;6.17;3.63;;;12.00;84.10;;;;;;4246762;33;20182;-67
2021/04/12 04:05:37;;;;;;;5.27;3.37;;;12.00;83.90;;;;;;4250615;33;20182;-67
2021/04/12 04:11:27;;;;;;;5.67;3.40;;;12.00;84.10;;;;;;4308309;33;20587;-67
2021/04/12 04:14:30;;;;;;;8.30;3.70;;;12.10;84.00;;;;;;4306554;33;20180;-66
2021/04/12 04:17:38;;;;;;;7.13;3.70;;;12.10;84.10;;;;;;4307505;33;20196;-66
2021/04/12 04:20:31;;;;;;;7.10;4.03;;;12.10;83.80;;;;;;4308844;33;20558;-67
2021/04/12 04:23:17;;;;;;;9.23;3.90;;;12.10;84.00;;;;;;4308334;33;20451;-66
2021/04/12 04:26:04;;;;;;;5.27;3.60;;;12.00;84.20;;;;;;4308813;33;20142;-67
2021/04/12 04:28:59;;;;;;;6.67;3.57;;;12.10;84.50;;;;;;4308612;33;20198;-68
2021/04/12 04:31:56;;;;;;;7.20;3.73;;;12.10;84.20;;;;;;4308235;33;20146;-67
2021/04/12 04:34:30;;;;;;;5.67;3.57;;;12.10;84.20;;;;;;4308618;33;20146;-67
2021/04/12 04:37:00;;;;;;;8.77;3.50;;;12.20;84.10;;;;;;4307714;33;20150;-67
2021/04/12 04:39:38;;;;;;;6.07;3.60;;;12.10;84.10;;;;;;4308654;33;20176;-67
2021/04/12 04:42:11;;;;;;;6.87;3.63;;;12.20;84.20;;;;;;4308545;33;20228;-68
2021/04/12 04:44:59;;;;;;;6.53;3.80;;;12.10;84.10;;;;;;4308153;33;20138;-68
2021/04/12 04:47:34;;;;;;;6.17;4.10;;;12.20;84.20;;;;;;4308425;33;20161;-68
2021/04/12 04:50:39;;;;;;;6.40;3.60;;;12.20;84.10;;;;;;4307031;33;20224;-66
2021/04/12 04:53:14;;;;;;;5.73;3.60;;;12.30;83.90;;;;;;4308461;33;20373;-68
2021/04/12 04:56:05;;;;;;;7.33;3.93;;;12.30;83.60;;;;;;4308422;33;20137;-68
2021/04/12 04:59:07;;;;;;;4.47;3.40;;;12.30;83.70;;;;;;4308301;33;20477;-67
2021/04/12 05:02:10;;;;;;;5.83;3.90;;;12.30;83.50;;;;;;4262948;33;20158;-68
2021/04/12 05:04:40;;;;;;;6.60;3.73;;;12.30;84.00;;;;;;4263202;33;20149;-67
2021/04/12 05:07:20;;;;;;;6.57;3.93;;;12.30;84.00;;;;;;4262322;33;20150;-67
2021/04/12 05:10:05;;;;;;;7.37;3.47;;;12.40;83.50;;;;;;4263430;33;20473;-67
2021/04/12 05:12:51;;;;;;;8.40;3.90;;;12.40;83.50;;;;;;4263004;33;20146;-67
2021/04/12 05:15:54;;;;;;;6.83;3.93;;;12.40;83.20;;;;;;4263493;33;20497;-68
2021/04/12 05:18:36;;;;;;;9.87;4.30;;;12.40;83.30;;;;;;4261715;33;20142;-69
2021/04/12 05:21:36;;;;;;;6.27;3.87;;;12.40;83.80;;;;;;4262236;33;20195;-67
2021/04/12 05:24:27;;;;;;;6.87;3.90;;;12.50;83.20;;;;;;4259946;33;20193;-68
2021/04/12 05:27:20;;;;;;;8.27;4.20;;;12.50;83.20;;;;;;4263375;33;20146;-68
2021/04/12 05:30:18;;;;;;;7.00;3.83;;;12.40;83.10;;;;;;4261621;33;20202;-68
2021/04/12 05:32:56;;;;;;;7.23;3.90;;;12.40;83.30;;;;;;4256564;33;20187;-68
2021/04/12 05:35:25;;;;;;;7.27;4.13;;;12.40;83.10;;;;;;4261506;33;20370;-68
2021/04/12 05:37:54;;;;;;;7.47;4.33;;;12.40;82.90;;;;;;4270563;33;20154;-68
2021/04/12 05:40:27;;;;;;;8.30;4.40;;;12.40;83.10;;;;;;4305050;33;20469;-67
2021/04/12 05:43:11;;;;;;;6.53;4.23;;;12.40;82.90;;;;;;4305979;33;20498;-67
2021/04/12 05:45:37;;;;;;;8.83;4.60;;;12.50;83.20;;;;;;4307409;33;20145;-68
2021/04/12 05:48:27;;;;;;;8.90;4.80;;;12.50;82.70;;;;;;4306300;33;20456;-69
2021/04/12 05:51:00;;;;;;;10.13;4.90;;;12.40;82.90;;;;;;4307553;33;20141;-68
2021/04/12 05:54:01;;;;;;;11.57;4.50;;;12.50;82.90;;;;;;4307564;33;20418;-67
2021/04/12 05:56:33;;;;;;;8.60;4.50;;;12.50;82.60;;;;;;4307182;33;20458;-68
2021/04/12 05:59:42;;;;;;;7.40;4.50;;;12.50;82.60;;;;;;4306155;33;20173;-68
2021/04/12 06:02:29;;;;;;;6.50;4.30;;;12.50;83.00;;;;;;4306313;33;20527;-67
2021/04/12 06:05:26;;;;;;;8.63;4.33;;;12.60;82.10;;;;;;4307314;33;20188;-68
2021/04/12 06:08:05;;;;;;;9.27;4.47;;;12.70;82.10;;;;;;4304909;33;20174;-69
2021/04/12 06:11:00;;;;;;;6.83;3.87;;;12.70;82.30;;;;;;4305903;33;20141;-69
2021/04/12 06:13:46;;;;;;;8.40;3.73;;;12.70;81.60;;;;;;4307318;33;20228;-68
2021/04/12 06:16:31;;;;;;;7.00;3.53;;;12.80;81.50;;;;;;4261932;33;20151;-70
2021/04/12 06:19:08;;;;;;;11.03;4.13;;;12.90;81.00;;;;;;4262643;33;20230;-67
2021/04/12 06:22:03;;;;;;;7.60;4.27;;;12.90;81.90;;;;;;4262548;33;20154;-68
2021/04/12 06:25:06;;;;;;;9.60;4.43;;;13.10;80.40;;;;;;4260538;33;20217;-69
2021/04/12 06:28:10;;;;;;;9.00;4.50;;;13.10;80.00;;;;;;4263562;33;20221;-67
2021/04/12 06:30:49;;;;;;;9.63;4.17;;;13.10;79.50;;;;;;4265843;33;20551;-69
2021/04/12 06:33:37;;;;;;;7.97;4.13;;;13.20;79.60;;;;;;4276107;33;20193;-68
2021/04/12 06:36:03;;;;;;;9.77;4.33;;;13.30;79.00;;;;;;4261780;33;20143;-68
2021/04/12 06:38:48;;;;;;;9.30;4.43;;;13.40;79.00;;;;;;4260596;33;20169;-68
2021/04/12 06:41:46;;;;;;;6.67;4.07;;;13.50;77.60;;;;;;4276169;33;20202;-69
2021/04/12 06:44:58;;;;;;;7.90;4.27;;;13.60;77.70;;;;;;4275437;33;20161;-68
2021/04/12 06:47:36;;;;;;;6.70;4.27;;;13.70;76.80;;;;;;4274567;33;20172;-66
2021/04/12 06:50:44;;;;;;;6.87;4.20;;;13.70;76.40;;;;;;4276151;33;20130;-67
2021/04/12 06:53:29;;;;;;;8.93;4.53;;;13.90;76.40;;;;;;4272561;33;20477;-66
2021/04/12 06:55:56;;;;;;;6.03;4.23;;;14.00;77.30;;;;;;4289540;33;20154;-67
2021/04/12 06:58:37;;;;;;;9.60;4.40;;;14.10;75.30;;;;;;4289700;33;20171;-69
2021/04/12 07:01:13;;;;;;;10.30;4.43;;;14.20;74.80;;;;;;4289439;33;20188;-69
2021/04/12 07:03:58;;;;;;;7.23;4.30;;;14.30;75.30;;;;;;4289767;33;20548;-69
2021/04/12 07:06:42;;;;;;;8.07;4.80;;;14.40;73.90;;;;;;4289409;33;20177;-67
2021/04/12 07:09:29;;;;;;;7.80;4.87;;;14.50;73.00;;;;;;4289158;33;20535;-68
2021/04/12 07:12:23;;;;;;;7.57;4.40;;;14.60;73.00;;;;;;4288807;33;20142;-70
2021/04/12 07:15:01;;;;;;;7.63;4.60;;;14.70;72.20;;;;;;4289389;33;20185;-70
2021/04/12 07:17:33;;;;;;;8.07;4.53;;;14.90;71.50;;;;;;4290352;33;20473;-69
2021/04/12 07:20:31;;;;;;;8.00;4.70;;;14.90;70.80;;;;;;4290065;33;20280;-68
2021/04/12 07:23:22;;;;;;;7.73;4.30;;;15.00;70.30;;;;;;4290064;33;20146;-69
2021/04/12 07:25:58;;;;;;;8.10;4.60;;;14.90;70.50;;;;;;4289332;33;20475;-68
2021/04/12 07:28:55;;;;;;;9.57;4.67;;;15.00;70.50;;;;;;4319109;33;20145;-68
2021/04/12 07:31:50;;;;;;;8.77;4.27;;;15.20;70.20;;;;;;4319281;33;20140;-68
2021/04/12 07:34:50;;;;;;;7.03;4.40;;;15.30;69.90;;;;;;4321001;33;20142;-69
2021/04/12 07:37:30;;;;;;;7.63;4.17;;;15.40;69.10;;;;;;4319471;33;20248;-67
2021/04/12 07:40:18;;;;;;;6.83;4.03;;;15.50;68.10;;;;;;4319860;33;20547;-67
2021/04/12 07:42:53;;;;;;;7.17;4.20;;;15.50;68.30;;;;;;4319533;33;20141;-66
2021/04/12 07:45:52;;;;;;;9.97;4.17;;;15.60;68.50;;;;;;4320793;33;20216;-67
2021/04/12 07:48:57;;;;;;;9.00;3.90;;;15.60;67.50;;;;;;4319927;33;20450;-66
2021/04/12 07:51:38;;;;;;;7.37;4.07;;;15.70;66.90;;;;;;4320790;33;20168;-67
2021/04/12 07:54:35;;;;;;;8.93;4.33;;;15.80;66.80;;;;;;4319972;33;20140;-67
2021/04/12 07:57:07;;;;;;;7.67;3.93;;;15.70;66.90;;;;;;4320716;33;20219;-68
2021/04/12 08:00:01;;;;;;;8.37;4.10;;;15.80;65.90;;;;;;4319782;33;20424;-68
2021/04/12 08:02:50;;;;;;;5.63;3.80;;;15.80;64.30;;;;;;4320578;33;20137;-66
2021/04/12 08:05:35;;;;;;;7.33;4.20;;;15.90;63.90;;;;;;4321859;33;20145;-67
2021/04/12 08:08:34;;;;;;;7.13;4.00;;;15.80;64.00;;;;;;4321870;33;20158;-68
2021/04/12 08:11:42;;;;;;;7.03;3.93;;;16.00;65.10;;;;;;4306921;33;20157;-67
2021/04/12 08:14:48;;;;;;;6.53;4.00;;;16.20;64.20;;;;;;4323455;33;20160;-67
2021/04/12 08:17:35;;;;;;;7.93;4.07;;;16.50;63.70;;;;;;4321240;33;20182;-68
2021/04/12 08:20:08;;;;;;;8.13;3.53;;;17.10;62.10;;;;;;4323832;33;20133;-66
2021/04/12 08:23:35;;;;;;;5.47;3.40;;;17.70;58.50;;;;;;4322345;33;20156;-66
2021/04/12 08:26:20;;;;;;;7.30;3.60;;;18.30;56.40;;;;;;4276808;33;20176;-70
2021/04/12 08:29:06;;;;;;;6.73;3.37;;;18.80;56.20;;;;;;4274723;33;20173;-70
2021/04/12 08:31:57;;;;;;;7.10;3.63;;;19.40;55.10;;;;;;4273343;33;20185;-69
2021/04/12 08:34:48;;;;;;;6.67;3.40;;;19.80;53.70;;;;;;4266942;33;20249;-69
2021/04/12 08:37:55;;;;;;;7.63;3.53;;;20.30;52.10;;;;;;4263763;33;20169;-69
2021/04/12 08:40:30;;;;;;;5.57;3.33;;;20.70;50.90;;;;;;4274956;33;20457;-70
2021/04/12 08:42:56;;;;;;;8.13;2.90;;;20.80;49.80;;;;;;4276825;33;20555;-69
2021/04/12 08:45:44;;;;;;;3.80;2.97;;;21.10;48.60;;;;;;4277433;33;20241;-69
2021/04/12 08:48:38;;;;;;;6.30;3.30;;;20.80;47.90;;;;;;4277000;33;20230;-69
2021/04/12 08:51:40;;;;;;;5.93;3.10;;;20.80;48.50;;;;;;4277538;33;20157;-71
2021/04/12 08:54:12;;;;;;;5.30;2.97;;;20.30;49.80;;;;;;4275925;33;20188;-68
2021/04/12 08:57:32;;;;;;;8.23;3.23;;;20.50;48.50;;;;;;4277332;33;20180;-69
2021/04/12 09:00:07;;;;;;;4.57;3.07;;;20.30;49.30;;;;;;4221448;34;20199;-71
2021/04/12 09:02:52;;;;;;;5.77;3.63;;;20.40;49.70;;;;;;4262014;33;20169;-70
2021/04/12 09:05:54;;;;;;;9.23;3.70;;;20.90;49.70;;;;;;4263427;33;20159;-71
2021/04/12 09:09:05;;;;;;;6.00;3.53;;;21.20;48.30;;;;;;4247348;33;20174;-69
2021/04/12 09:11:48;;;;;;;8.33;3.60;;;21.80;48.10;;;;;;4240281;33;20465;-70
2021/04/12 09:14:41;;;;;;;6.50;3.50;;;22.00;46.50;;;;;;4248199;33;20434;-71
2021/04/12 09:17:45;;;;;;;5.47;2.80;;;21.40;47.10;;;;;;4248082;33;20160;-69
2021/04/12 09:20:20;;;;;;;5.40;3.40;;;21.70;46.10;;;;;;4247546;33;20146;-71
2021/04/12 09:23:20;;;;;;;7.10;3.80;;;21.20;46.30;;;;;;4248641;33;20414;-70
2021/04/12 09:26:24;;;;;;;4.93;3.30;;;21.50;47.80;;;;;;4248659;33;20210;-69
2021/04/12 09:28:51;;;;;;;6.07;3.20;;;22.10;46.00;;;;;;4248658;33;20441;-68
2021/04/12 09:31:47;;;;;;;6.30;3.20;;;22.40;45.20;;;;;;4246928;33;20478;-69
2021/04/12 09:34:26;;;;;;;5.55;3.30;;;22.90;43.60;;;;;;4281534;33;20519;-68
2021/04/12 09:37:08;;;;;;;4.72;3.03;;;22.70;43.80;;;;;;4307610;33;20163;-68
2021/04/12 09:40:03;;;;;;;6.65;3.30;;;22.80;44.00;;;;;;4306144;33;20145;-69
2021/04/12 09:42:41;;;;;;;5.70;3.70;;;23.10;43.00;;;;;;4233480;34;20189;-69
2021/04/12 09:45:22;;;;;;;7.50;3.37;;;22.60;44.80;;;;;;4244611;33;20151;-68
2021/04/12 09:48:19;;;;;;;7.23;3.20;;;22.90;44.10;;;;;;4233416;33;20508;-69
2021/04/12 09:51:10;;;;;;;4.80;3.15;;;23.30;42.80;;;;;;4232600;33;20143;-70
2021/04/12 09:54:11;;;;;;;5.03;3.30;;;24.00;41.80;;;;;;4232894;34;20143;-70
2021/04/12 09:57:09;;;;;;;6.70;3.10;;;23.70;41.70;;;;;;4233495;34;20485;-69
2021/04/12 09:59:58;;;;;;;8.40;3.70;;;23.90;41.30;;;;;;4232850;34;20143;-69
2021/04/12 10:02:46;;;;;;;5.97;3.20;;;22.90;41.70;;;;;;4232727;34;20159;-72
2021/04/12 10:05:50;;;;;;;5.57;3.28;;;23.70;41.40;;;;;;4234119;34;20428;-69
2021/04/12 10:08:35;;;;;;;6.20;3.40;;;23.30;42.00;;;;;;4243637;33;20147;-70
2021/04/12 10:11:13;;;;;;;4.20;3.08;;;23.60;42.40;;;;;;4248017;33;20188;-69
2021/04/12 10:14:04;;;;;;;5.35;3.20;;;23.70;41.50;;;;;;4247362;33;20270;-70
2021/04/12 10:16:35;;;;;;;4.50;3.40;;;24.10;40.60;;;;;;4248196;33;20161;-69
2021/04/12 10:19:12;;;;;;;4.60;3.33;;;24.10;41.00;;;;;;4262512;33;20149;-69
2021/04/12 10:22:05;;;;;;;6.35;3.45;;;24.20;41.00;;;;;;4306142;33;20451;-69
2021/04/12 10:24:44;;;;;;;5.75;3.42;;;24.30;40.20;;;;;;4307174;33;20264;-70
2021/04/12 10:27:36;;;;;;;6.05;3.08;;;24.20;39.20;;;;;;4305536;33;20176;-70
2021/04/12 10:30:25;;;;;;;6.07;3.20;;;24.50;39.40;;;;;;4306910;33;20172;-68
2021/04/12 10:32:56;;;;;;;4.45;3.00;;;24.30;38.90;;;;;;4260955;33;20454;-71
2021/04/12 10:35:32;;;;;;;6.30;3.20;;;24.10;39.60;;;;;;4262301;33;20235;-73
2021/04/12 10:38:13;;;;;;;5.75;3.10;;;24.50;39.20;;;;;;4261308;33;20512;-69
2021/04/12 10:41:09;;;;;;;4.80;3.00;;;25.50;39.20;;;;;;4261642;33;20487;-69
2021/04/12 10:44:39;;;;;;;5.57;3.42;;;26.00;37.40;;;;;;4260735;33;20164;-69
2021/04/12 10:47:18;;;;;;;6.00;3.40;;;25.30;38.40;;;;;;4261853;33;20151;-69
2021/04/12 10:50:20;;;;;;;9.25;3.90;;;24.90;38.60;;;;;;4261443;33;20162;-68
2021/04/12 10:53:09;;;;;;;8.25;3.70;;;24.60;39.50;;;;;;4260691;33;20176;-69
2021/04/12 10:56:00;;;;;;;6.78;3.60;;;24.60;39.80;;;;;;4261818;33;20465;-70
2021/04/12 10:58:51;;;;;;;5.87;3.80;;;24.40;39.50;;;;;;4261664;33;20173;-70
2021/04/12 11:01:47;;;;;;;6.37;3.67;;;24.00;40.50;;;;;;4261432;33;20256;-69
2021/04/12 11:04:52;;;;;;;4.28;3.37;;;24.00;41.00;;;;;;4218333;34;20159;-69
2021/04/12 11:07:44;;;;;;;5.70;3.50;;;24.60;40.10;;;;;;4218658;34;20182;-69
2021/04/12 11:10:43;;;;;;;6.45;3.37;;;25.00;39.30;;;;;;4226915;34;20525;-70
2021/04/12 11:13:30;;;;;;;5.82;3.33;;;24.70;39.70;;;;;;4232990;34;20318;-70
2021/04/12 11:16:08;;;;;;;6.97;3.20;;;24.40;40.20;;;;;;4233628;34;20206;-70
2021/04/12 11:18:48;;;;;;;7.53;3.00;;;24.70;39.20;;;;;;4233696;34;20229;-70
2021/04/12 11:21:26;;;;;;;6.35;3.50;;;24.70;39.40;;;;;;4232735;34;20663;-69
2021/04/12 11:24:22;;;;;;;5.95;3.35;;;23.90;40.20;;;;;;4231609;34;20459;-70
2021/04/12 11:27:26;;;;;;;4.35;3.28;;;23.70;41.00;;;;;;4232614;34;20169;-69
2021/04/12 11:30:13;;;;;;;5.70;3.37;;;24.00;41.30;;;;;;4231230;34;20139;-69
2021/04/12 11:33:16;;;;;;;6.78;3.83;;;24.40;41.10;;;;;;4231809;34;20641;-70
2021/04/12 11:36:16;;;;;;;4.95;3.20;;;25.00;39.70;;;;;;4231887;34;20192;-69
2021/04/12 11:39:06;;;;;;;7.60;3.40;;;24.90;39.10;;;;;;4234245;33;20143;-71
2021/04/12 11:41:57;;;;;;;7.10;3.50;;;24.30;40.00;;;;;;4280275;33;20193;-71
2021/04/12 11:44:30;;;;;;;4.70;3.20;;;23.80;41.00;;;;;;4307702;33;20442;-71
2021/04/12 11:47:31;;;;;;;5.90;3.30;;;23.20;42.20;;;;;;4307820;33;20198;-70
2021/04/12 11:50:00;;;;;;;5.43;3.80;;;23.40;42.40;;;;;;4309183;33;20164;-70
2021/04/12 11:52:36;;;;;;;7.82;3.50;;;23.40;41.90;;;;;;4309228;33;20342;-71
2021/04/12 11:55:20;;;;;;;6.60;3.47;;;23.40;42.40;;;;;;4308790;33;20222;-71
2021/04/12 11:58:01;;;;;;;5.63;3.23;;;23.10;42.70;;;;;;4309129;33;20169;-71
2021/04/12 12:00:34;;;;;;;5.82;3.47;;;23.40;42.90;;;;;;4308289;33;20137;-70
2021/04/12 12:03:32;;;;;;;6.07;3.70;;;23.30;42.00;;;;;;4309049;33;20153;-71
2021/04/12 12:06:17;;;;;;;5.62;3.45;;;22.80;43.00;;;;;;4307976;33;20405;-71
2021/04/12 12:09:09;;;;;;;7.82;3.58;;;22.30;44.30;;;;;;4320494;33;20180;-70
2021/04/12 12:11:54;;;;;;;6.13;3.13;;;22.30;44.80;;;;;;4323277;33;20136;-71
2021/04/12 12:14:25;;;;;;;4.20;2.90;;;21.50;46.00;;;;;;4323496;33;20164;-71
2021/04/12 12:16:55;;;;;;;6.73;3.13;;;21.10;47.00;;;;;;4323383;33;20227;-71
2021/04/12 12:19:43;;;;;;;5.23;3.00;;;20.70;47.80;;;;;;4323296;33;20134;-70
2021/04/12 12:22:23;;;;;;;6.47;3.10;;;20.80;48.00;;;;;;4313725;33;20173;-68
2021/04/12 12:25:05;;;;;;;8.10;3.20;;;20.30;48.40;;;;;;4308656;33;20148;-68
2021/04/12 12:27:35;;;;;;;5.87;3.23;;;20.40;48.90;;;;;;4309008;33;20156;-69
2021/04/12 12:30:27;;;;;;;4.67;2.80;;;20.40;48.70;;;;;;4308145;33;20137;-69
2021/04/12 12:33:16;;;;;;;5.30;2.70;;;20.30;49.00;;;;;;4308670;33;20457;-69
2021/04/12 12:36:14;;;;;;;6.40;2.97;;;20.30;49.10;;;;;;4307760;33;20413;-68
2021/04/12 12:39:01;;;;;;;4.30;2.77;;;20.10;49.40;;;;;;4307301;33;20208;-67
2021/04/12 12:41:36;;;;;;;5.00;3.10;;;20.00;49.60;;;;;;4306850;33;20177;-67
2021/04/12 12:44:09;;;;;;;4.60;2.83;;;19.90;49.70;;;;;;4308677;33;20205;-67
2021/04/12 12:46:38;;;;;;;5.13;3.20;;;19.70;50.70;;;;;;4307527;33;20160;-67
2021/04/12 12:49:25;;;;;;;5.63;2.80;;;19.60;50.60;;;;;;4308041;33;20201;-67
2021/04/12 12:52:01;;;;;;;6.40;2.77;;;19.40;51.10;;;;;;4308358;33;20141;-67
2021/04/12 12:54:53;;;;;;;4.80;2.77;;;19.30;51.60;;;;;;4308450;33;20217;-68
2021/04/12 12:57:34;;;;;;;5.27;2.60;;;18.90;51.90;;;;;;4306568;33;20193;-68
2021/04/12 13:00:07;;;;;;;5.00;2.70;;;19.10;52.30;;;;;;4308113;33;20137;-68
2021/04/12 13:02:37;;;;;;;3.63;2.13;;;19.10;51.90;;;;;;4306996;33;20484;-66
2021/04/12 13:05:24;;;;;;;4.53;2.50;;;19.10;52.20;;;;;;4308088;33;20172;-67
2021/04/12 13:08:03;;;;;;;9.00;2.90;;;19.30;51.90;;;;;;4306527;33;20172;-67
2021/04/12 13:10:46;;;;;;;5.50;2.87;;;19.30;51.20;;;;;;4307269;33;20185;-67
2021/04/12 13:13:17;;;;;;;4.13;2.60;;;19.10;51.70;;;;;;4307475;33;20193;-68
2021/04/12 13:15:44;;;;;;;8.20;3.13;;;19.10;51.60;;;;;;4306581;33;20413;-67
2021/04/12 13:18:16;;;;;;;6.13;3.10;;;18.90;52.20;;;;;;4306311;33;20141;-67
2021/04/12 13:20:46;;;;;;;6.43;3.00;;;18.80;52.50;;;;;;4308050;33;20201;-68
2021/04/12 13:23:23;;;;;;;7.13;3.30;;;18.80;53.20;;;;;;4307860;33;20495;-67
2021/04/12 13:25:53;;;;;;;7.03;3.40;;;18.80;53.20;;;;;;4308259;33;20187;-67
2021/04/12 13:28:41;;;;;;;10.03;3.53;;;18.60;53.30;;;;;;4306768;33;20219;-68
2021/04/12 13:31:12;;;;;;;6.47;3.17;;;18.40;53.60;;;;;;4306789;33;20208;-68
2021/04/12 13:34:00;;;;;;;7.07;3.03;;;18.40;53.70;;;;;;4307832;33;20225;-68
2021/04/12 13:36:38;;;;;;;8.13;3.30;;;18.30;54.10;;;;;;4306760;33;20141;-68
2021/04/12 13:39:17;;;;;;;8.80;3.13;;;18.20;54.80;;;;;;4305685;33;20136;-68
2021/04/12 13:41:47;;;;;;;5.83;3.10;;;18.10;54.70;;;;;;4307621;33;20399;-67
2021/04/12 13:44:20;;;;;;;10.60;3.30;;;18.30;54.80;;;;;;4306656;33;20236;-68
2021/04/12 13:47:06;;;;;;;7.03;3.20;;;18.30;54.80;;;;;;4306770;33;20460;-69
2021/04/12 13:49:44;;;;;;;5.40;3.10;;;18.20;54.90;;;;;;4306035;33;20141;-66
2021/04/12 13:52:27;;;;;;;7.10;3.23;;;18.20;54.80;;;;;;4307632;33;20209;-68
2021/04/12 13:55:06;;;;;;;5.17;3.10;;;18.10;55.80;;;;;;4307277;33;20270;-67
2021/04/12 13:57:35;;;;;;;6.07;3.60;;;18.10;55.00;;;;;;4307399;33;20149;-69
2021/04/12 14:00:19;;;;;;;8.03;3.30;;;18.00;55.30;;;;;;4307174;33;20247;-68
2021/04/12 14:03:13;;;;;;;4.40;3.17;;;18.10;55.60;;;;;;4307315;33;20142;-69
2021/04/12 14:06:09;;;;;;;8.73;3.20;;;18.00;55.40;;;;;;4306875;33;20487;-69
2021/04/12 14:08:47;;;;;;;6.87;2.80;;;17.80;55.80;;;;;;4307216;33;20495;-68
2021/04/12 14:11:35;;;;;;;6.37;2.80;;;17.70;56.50;;;;;;4305246;33;20208;-67
2021/04/12 14:14:18;;;;;;;4.80;3.17;;;17.60;56.30;;;;;;4302667;33;20146;-69
2021/04/12 14:16:47;;;;;;;6.83;3.10;;;17.70;56.20;;;;;;4303361;33;20177;-69
2021/04/12 14:19:26;;;;;;;6.70;3.07;;;17.60;56.40;;;;;;4303239;33;20157;-69
2021/04/12 14:22:19;;;;;;;6.90;3.10;;;17.70;56.20;;;;;;4304863;33;20168;-69
2021/04/12 14:24:51;;;;;;;7.27;3.33;;;17.70;56.20;;;;;;4304071;33;20513;-69
2021/04/12 14:27:26;;;;;;;8.30;3.40;;;17.60;56.40;;;;;;4303183;33;20177;-69
2021/04/12 14:30:06;;;;;;;8.07;3.10;;;17.50;56.70;;;;;;4304816;33;20223;-69
2021/04/12 14:32:47;;;;;;;9.50;3.33;;;17.60;57.10;;;;;;4305260;33;20160;-68
2021/04/12 14:35:21;;;;;;;7.13;2.90;;;17.60;56.90;;;;;;4306576;33;20179;-69
2021/04/12 14:37:48;;;;;;;11.73;3.50;;;17.60;56.60;;;;;;4306856;33;20152;-69
2021/04/12 14:40:25;;;;;;;8.00;3.13;;;17.60;56.90;;;;;;4304804;33;20171;-70
2021/04/12 14:43:13;;;;;;;5.37;3.30;;;17.50;57.00;;;;;;4306619;33;20149;-69
2021/04/12 14:45:45;;;;;;;9.40;3.50;;;17.50;57.10;;;;;;4305524;33;20193;-69
2021/04/12 14:48:20;;;;;;;6.70;3.30;;;17.50;57.10;;;;;;4304968;33;20456;-69
2021/04/12 14:50:51;;;;;;;8.33;3.23;;;17.50;57.50;;;;;;4307032;33;20155;-70